sensor_id;sensor_type;location;lat;lon;timestamp;temperature;humidity
796;DHT22;381;48.770;9.188;2023-07-09T00:04:50;24.50;72.30
796;DHT22;381;48.770;9.188;2023-07-09T00:09:53;24.40;72.50
796;DHT22;381;48.770;9.188;2023-07-09T00:14:56;24.40;72.70
796;DHT22;381;48.770;9.188;2023-07-09T00:19:59;24.40;72.60
796;DHT22;381;48.770;9.188;2023-07-09T00:25:01;24.30;72.90
796;DHT22;381;48.770;9.188;2023-07-09T00:30:09;24.20;73.00
796;DHT22;381;48.770;9.188;2023-07-09T00:35:15;24.20;73.30
796;DHT22;381;48.770;9.188;2023-07-09T00:40:19;24.20;74.00
796;DHT22;381;48.770;9.188;2023-07-09T00:45:24;24.20;73.40
796;DHT22;381;48.770;9.188;2023-07-09T00:50:34;24.10;73.90
796;DHT22;381;48.770;9.188;2023-07-09T00:55:39;24.10;74.10
796;DHT22;381;48.770;9.188;2023-07-09T01:00:48;24.00;74.00
796;DHT22;381;48.770;9.188;2023-07-09T01:05:53;24.00;74.20
796;DHT22;381;48.770;9.188;2023-07-09T01:10:56;24.00;75.40
796;DHT22;381;48.770;9.188;2023-07-09T01:16:00;23.90;75.70
796;DHT22;381;48.770;9.188;2023-07-09T01:21:09;23.90;75.50
796;DHT22;381;48.770;9.188;2023-07-09T01:26:18;23.80;75.20
796;DHT22;381;48.770;9.188;2023-07-09T01:31:21;23.80;76.30
796;DHT22;381;48.770;9.188;2023-07-09T01:36:25;23.80;75.70
796;DHT22;381;48.770;9.188;2023-07-09T01:41:29;23.80;76.00
796;DHT22;381;48.770;9.188;2023-07-09T01:46:35;23.70;75.90
796;DHT22;381;48.770;9.188;2023-07-09T01:51:38;23.70;76.60
796;DHT22;381;48.770;9.188;2023-07-09T01:56:41;23.70;76.60
796;DHT22;381;48.770;9.188;2023-07-09T02:01:43;23.60;77.10
796;DHT22;381;48.770;9.188;2023-07-09T02:06:46;23.60;77.30
796;DHT22;381;48.770;9.188;2023-07-09T02:11:48;23.60;77.40
796;DHT22;381;48.770;9.188;2023-07-09T02:16:50;23.60;77.00
796;DHT22;381;48.770;9.188;2023-07-09T02:21:54;23.60;77.60
796;DHT22;381;48.770;9.188;2023-07-09T02:26:58;23.50;77.40
796;DHT22;381;48.770;9.188;2023-07-09T02:32:01;23.50;77.70
796;DHT22;381;48.770;9.188;2023-07-09T02:37:06;23.40;77.50
796;DHT22;381;48.770;9.188;2023-07-09T02:42:09;23.40;78.50
796;DHT22;381;48.770;9.188;2023-07-09T02:47:12;23.40;78.40
796;DHT22;381;48.770;9.188;2023-07-09T02:52:16;23.30;78.00
796;DHT22;381;48.770;9.188;2023-07-09T02:57:18;23.30;78.10
796;DHT22;381;48.770;9.188;2023-07-09T03:02:21;23.30;78.20
796;DHT22;381;48.770;9.188;2023-07-09T03:07:24;23.20;78.20
796;DHT22;381;48.770;9.188;2023-07-09T03:12:26;23.20;78.10
796;DHT22;381;48.770;9.188;2023-07-09T03:17:28;23.10;78.40
796;DHT22;381;48.770;9.188;2023-07-09T03:22:32;23.10;77.70
796;DHT22;381;48.770;9.188;2023-07-09T03:27:34;23.10;78.00
796;DHT22;381;48.770;9.188;2023-07-09T03:32:36;23.00;78.60
796;DHT22;381;48.770;9.188;2023-07-09T03:37:40;23.00;78.10
796;DHT22;381;48.770;9.188;2023-07-09T03:42:42;23.00;78.50
796;DHT22;381;48.770;9.188;2023-07-09T03:47:44;23.00;78.30
796;DHT22;381;48.770;9.188;2023-07-09T03:52:47;22.90;78.10
796;DHT22;381;48.770;9.188;2023-07-09T03:57:49;22.90;78.70
796;DHT22;381;48.770;9.188;2023-07-09T04:02:52;22.90;78.60
796;DHT22;381;48.770;9.188;2023-07-09T04:07:55;22.90;79.20
796;DHT22;381;48.770;9.188;2023-07-09T04:12:57;22.90;79.00
796;DHT22;381;48.770;9.188;2023-07-09T04:17:59;22.90;79.90
796;DHT22;381;48.770;9.188;2023-07-09T04:23:03;22.90;78.80
796;DHT22;381;48.770;9.188;2023-07-09T04:28:05;22.90;79.30
796;DHT22;381;48.770;9.188;2023-07-09T04:33:07;22.90;79.50
796;DHT22;381;48.770;9.188;2023-07-09T04:38:12;22.90;80.00
796;DHT22;381;48.770;9.188;2023-07-09T04:43:14;22.90;80.30
796;DHT22;381;48.770;9.188;2023-07-09T04:48:16;22.90;80.30
796;DHT22;381;48.770;9.188;2023-07-09T04:53:20;22.90;80.10
796;DHT22;381;48.770;9.188;2023-07-09T04:58:25;23.00;80.50
796;DHT22;381;48.770;9.188;2023-07-09T05:03:27;23.00;81.20
796;DHT22;381;48.770;9.188;2023-07-09T05:08:30;23.10;81.50
796;DHT22;381;48.770;9.188;2023-07-09T05:13:33;23.20;81.00
796;DHT22;381;48.770;9.188;2023-07-09T05:18:37;23.20;80.80
796;DHT22;381;48.770;9.188;2023-07-09T05:23:40;23.30;81.20
796;DHT22;381;48.770;9.188;2023-07-09T05:28:43;23.40;81.10
796;DHT22;381;48.770;9.188;2023-07-09T05:33:45;23.50;81.80
796;DHT22;381;48.770;9.188;2023-07-09T05:38:49;23.50;82.00
796;DHT22;381;48.770;9.188;2023-07-09T05:43:52;23.60;81.70
796;DHT22;381;48.770;9.188;2023-07-09T05:48:54;23.60;82.30
796;DHT22;381;48.770;9.188;2023-07-09T05:53:58;23.70;82.10
796;DHT22;381;48.770;9.188;2023-07-09T05:59:00;23.70;81.90
796;DHT22;381;48.770;9.188;2023-07-09T06:04:02;23.70;81.40
796;DHT22;381;48.770;9.188;2023-07-09T06:09:06;23.80;81.20
796;DHT22;381;48.770;9.188;2023-07-09T06:14:09;23.80;82.30
796;DHT22;381;48.770;9.188;2023-07-09T06:19:11;23.90;82.00
796;DHT22;381;48.770;9.188;2023-07-09T06:24:14;24.00;80.90
796;DHT22;381;48.770;9.188;2023-07-09T06:29:16;24.10;80.50
796;DHT22;381;48.770;9.188;2023-07-09T06:34:19;24.20;80.60
796;DHT22;381;48.770;9.188;2023-07-09T06:39:22;24.30;81.10
796;DHT22;381;48.770;9.188;2023-07-09T06:44:24;24.50;82.00
796;DHT22;381;48.770;9.188;2023-07-09T06:49:27;24.70;82.30
796;DHT22;381;48.770;9.188;2023-07-09T06:54:31;25.00;83.40
796;DHT22;381;48.770;9.188;2023-07-09T06:59:33;25.30;81.80
796;DHT22;381;48.770;9.188;2023-07-09T07:04:35;25.50;80.90
796;DHT22;381;48.770;9.188;2023-07-09T07:09:39;25.80;80.20
796;DHT22;381;48.770;9.188;2023-07-09T07:14:41;26.10;78.20
796;DHT22;381;48.770;9.188;2023-07-09T07:19:43;26.20;77.20
796;DHT22;381;48.770;9.188;2023-07-09T07:24:47;26.50;76.70
796;DHT22;381;48.770;9.188;2023-07-09T07:29:49;26.80;75.60
796;DHT22;381;48.770;9.188;2023-07-09T07:34:51;27.20;75.80
796;DHT22;381;48.770;9.188;2023-07-09T07:39:56;27.60;75.40
796;DHT22;381;48.770;9.188;2023-07-09T07:44:59;28.10;73.30
796;DHT22;381;48.770;9.188;2023-07-09T07:50:01;28.60;72.00
796;DHT22;381;48.770;9.188;2023-07-09T07:55:06;29.20;70.40
796;DHT22;381;48.770;9.188;2023-07-09T08:00:10;29.80;69.70
796;DHT22;381;48.770;9.188;2023-07-09T08:05:15;30.40;68.60
796;DHT22;381;48.770;9.188;2023-07-09T08:10:18;30.90;65.90
796;DHT22;381;48.770;9.188;2023-07-09T08:15:21;31.40;65.10
796;DHT22;381;48.770;9.188;2023-07-09T08:20:23;31.90;64.30
796;DHT22;381;48.770;9.188;2023-07-09T08:25:26;32.40;61.70
796;DHT22;381;48.770;9.188;2023-07-09T08:30:28;32.80;61.00
796;DHT22;381;48.770;9.188;2023-07-09T08:35:30;33.20;60.50
796;DHT22;381;48.770;9.188;2023-07-09T08:40:39;33.50;58.00
796;DHT22;381;48.770;9.188;2023-07-09T08:45:47;33.70;58.70
796;DHT22;381;48.770;9.188;2023-07-09T08:50:55;34.00;58.20
796;DHT22;381;48.770;9.188;2023-07-09T08:56:00;34.20;57.70
796;DHT22;381;48.770;9.188;2023-07-09T09:01:04;34.30;57.40
796;DHT22;381;48.770;9.188;2023-07-09T09:06:11;34.50;57.90
796;DHT22;381;48.770;9.188;2023-07-09T09:11:22;34.70;56.90
796;DHT22;381;48.770;9.188;2023-07-09T09:16:28;35.00;55.60
796;DHT22;381;48.770;9.188;2023-07-09T09:21:33;35.20;55.50
796;DHT22;381;48.770;9.188;2023-07-09T09:26:39;35.50;55.30
796;DHT22;381;48.770;9.188;2023-07-09T09:31:45;35.70;54.60
796;DHT22;381;48.770;9.188;2023-07-09T09:36:50;36.10;53.90
796;DHT22;381;48.770;9.188;2023-07-09T09:41:58;36.50;53.20
796;DHT22;381;48.770;9.188;2023-07-09T09:47:00;36.90;53.00
796;DHT22;381;48.770;9.188;2023-07-09T09:52:09;37.70;51.80
796;DHT22;381;48.770;9.188;2023-07-09T09:57:17;38.50;50.70
796;DHT22;381;48.770;9.188;2023-07-09T10:02:21;39.50;49.00
796;DHT22;381;48.770;9.188;2023-07-09T10:07:30;40.60;45.80
796;DHT22;381;48.770;9.188;2023-07-09T10:12:41;41.70;43.50
796;DHT22;381;48.770;9.188;2023-07-09T10:17:53;42.60;42.20
796;DHT22;381;48.770;9.188;2023-07-09T10:23:02;43.50;40.90
796;DHT22;381;48.770;9.188;2023-07-09T10:28:33;44.40;39.90
796;DHT22;381;48.770;9.188;2023-07-09T10:33:51;43.20;37.30
796;DHT22;381;48.770;9.188;2023-07-09T10:39:00;40.90;38.90
796;DHT22;381;48.770;9.188;2023-07-09T10:44:10;39.00;40.10
796;DHT22;381;48.770;9.188;2023-07-09T10:49:14;37.50;42.50
796;DHT22;381;48.770;9.188;2023-07-09T10:54:24;36.30;43.60
796;DHT22;381;48.770;9.188;2023-07-09T10:59:33;35.40;43.80
796;DHT22;381;48.770;9.188;2023-07-09T11:04:43;34.60;43.00
796;DHT22;381;48.770;9.188;2023-07-09T11:09:47;34.00;43.60
796;DHT22;381;48.770;9.188;2023-07-09T11:14:57;33.60;45.60
796;DHT22;381;48.770;9.188;2023-07-09T11:20:07;33.10;45.30
796;DHT22;381;48.770;9.188;2023-07-09T11:25:11;32.80;44.50
796;DHT22;381;48.770;9.188;2023-07-09T11:30:22;32.50;46.10
796;DHT22;381;48.770;9.188;2023-07-09T11:35:26;32.20;46.60
796;DHT22;381;48.770;9.188;2023-07-09T11:40:28;32.00;47.50
796;DHT22;381;48.770;9.188;2023-07-09T11:45:32;31.80;46.70
796;DHT22;381;48.770;9.188;2023-07-09T11:50:39;31.80;46.10
796;DHT22;381;48.770;9.188;2023-07-09T11:55:44;31.70;46.50
796;DHT22;381;48.770;9.188;2023-07-09T12:00:49;31.60;48.40
796;DHT22;381;48.770;9.188;2023-07-09T12:05:53;31.60;48.90
796;DHT22;381;48.770;9.188;2023-07-09T12:10:56;31.50;47.80
796;DHT22;381;48.770;9.188;2023-07-09T12:15:59;31.50;46.50
796;DHT22;381;48.770;9.188;2023-07-09T12:21:01;31.40;47.90
796;DHT22;381;48.770;9.188;2023-07-09T12:26:04;31.40;48.70
796;DHT22;381;48.770;9.188;2023-07-09T12:31:13;31.30;48.60
796;DHT22;381;48.770;9.188;2023-07-09T12:36:16;31.30;48.50
796;DHT22;381;48.770;9.188;2023-07-09T12:41:23;31.30;48.30
796;DHT22;381;48.770;9.188;2023-07-09T12:46:28;31.30;48.60
796;DHT22;381;48.770;9.188;2023-07-09T12:51:30;31.30;47.10
796;DHT22;381;48.770;9.188;2023-07-09T12:56:34;31.30;47.10
796;DHT22;381;48.770;9.188;2023-07-09T13:01:39;31.20;47.30
796;DHT22;381;48.770;9.188;2023-07-09T13:06:42;31.20;47.40
796;DHT22;381;48.770;9.188;2023-07-09T13:11:46;31.30;47.40
796;DHT22;381;48.770;9.188;2023-07-09T13:16:49;31.20;49.40
796;DHT22;381;48.770;9.188;2023-07-09T13:21:52;31.30;46.40
796;DHT22;381;48.770;9.188;2023-07-09T13:26:55;31.40;47.10
796;DHT22;381;48.770;9.188;2023-07-09T13:32:00;31.40;47.70
796;DHT22;381;48.770;9.188;2023-07-09T13:37:04;31.40;47.90
796;DHT22;381;48.770;9.188;2023-07-09T13:42:10;31.40;46.60
796;DHT22;381;48.770;9.188;2023-07-09T13:47:15;31.40;46.10
796;DHT22;381;48.770;9.188;2023-07-09T13:52:19;31.40;47.20
796;DHT22;381;48.770;9.188;2023-07-09T13:57:24;31.30;47.10
796;DHT22;381;48.770;9.188;2023-07-09T14:02:30;31.30;47.80
796;DHT22;381;48.770;9.188;2023-07-09T14:07:34;31.30;47.50
796;DHT22;381;48.770;9.188;2023-07-09T14:12:39;31.40;46.90
796;DHT22;381;48.770;9.188;2023-07-09T14:17:44;31.50;47.10
796;DHT22;381;48.770;9.188;2023-07-09T14:22:47;31.80;46.70
796;DHT22;381;48.770;9.188;2023-07-09T14:27:50;31.90;48.30
796;DHT22;381;48.770;9.188;2023-07-09T14:32:54;31.80;47.30
796;DHT22;381;48.770;9.188;2023-07-09T14:37:56;31.90;47.40
796;DHT22;381;48.770;9.188;2023-07-09T14:43:00;31.90;48.30
796;DHT22;381;48.770;9.188;2023-07-09T14:48:09;31.90;48.90
796;DHT22;381;48.770;9.188;2023-07-09T14:53:14;31.90;47.80
796;DHT22;381;48.770;9.188;2023-07-09T14:58:18;31.80;48.30
796;DHT22;381;48.770;9.188;2023-07-09T15:03:23;31.80;47.80
796;DHT22;381;48.770;9.188;2023-07-09T15:08:26;31.80;48.80
796;DHT22;381;48.770;9.188;2023-07-09T15:13:30;31.80;47.40
796;DHT22;381;48.770;9.188;2023-07-09T15:18:34;31.90;47.60
796;DHT22;381;48.770;9.188;2023-07-09T15:23:40;31.90;48.60
796;DHT22;381;48.770;9.188;2023-07-09T15:28:45;32.00;46.40
796;DHT22;381;48.770;9.188;2023-07-09T15:33:52;32.00;46.40
796;DHT22;381;48.770;9.188;2023-07-09T15:38:54;31.90;45.20
796;DHT22;381;48.770;9.188;2023-07-09T15:43:56;31.90;47.30
796;DHT22;381;48.770;9.188;2023-07-09T15:49:00;31.80;48.10
796;DHT22;381;48.770;9.188;2023-07-09T15:54:07;31.60;48.90
796;DHT22;381;48.770;9.188;2023-07-09T15:59:24;31.40;49.50
796;DHT22;381;48.770;9.188;2023-07-09T16:04:29;31.30;52.00
796;DHT22;381;48.770;9.188;2023-07-09T16:09:31;31.20;51.10
796;DHT22;381;48.770;9.188;2023-07-09T16:14:34;31.00;53.20
796;DHT22;381;48.770;9.188;2023-07-09T16:19:37;30.80;55.10
796;DHT22;381;48.770;9.188;2023-07-09T16:24:39;30.70;51.20
796;DHT22;381;48.770;9.188;2023-07-09T16:29:41;30.60;54.10
796;DHT22;381;48.770;9.188;2023-07-09T16:34:45;30.50;53.90
796;DHT22;381;48.770;9.188;2023-07-09T16:39:47;30.40;52.00
796;DHT22;381;48.770;9.188;2023-07-09T16:44:49;30.40;53.90
796;DHT22;381;48.770;9.188;2023-07-09T16:49:52;30.40;55.30
796;DHT22;381;48.770;9.188;2023-07-09T16:54:55;30.40;53.10
796;DHT22;381;48.770;9.188;2023-07-09T17:00:18;30.50;53.90
796;DHT22;381;48.770;9.188;2023-07-09T17:05:25;30.60;52.80
796;DHT22;381;48.770;9.188;2023-07-09T17:10:27;30.70;53.50
796;DHT22;381;48.770;9.188;2023-07-09T17:15:31;30.80;53.40
796;DHT22;381;48.770;9.188;2023-07-09T17:20:35;30.90;52.60
796;DHT22;381;48.770;9.188;2023-07-09T17:25:38;31.00;52.70
796;DHT22;381;48.770;9.188;2023-07-09T17:30:40;31.20;52.10
796;DHT22;381;48.770;9.188;2023-07-09T17:35:45;31.20;51.50
796;DHT22;381;48.770;9.188;2023-07-09T17:40:49;31.20;51.40
796;DHT22;381;48.770;9.188;2023-07-09T17:45:52;31.20;50.80
796;DHT22;381;48.770;9.188;2023-07-09T17:50:56;31.10;51.10
796;DHT22;381;48.770;9.188;2023-07-09T17:55:58;30.80;52.90
796;DHT22;381;48.770;9.188;2023-07-09T18:01:03;30.60;52.30
796;DHT22;381;48.770;9.188;2023-07-09T18:06:13;30.50;52.10
796;DHT22;381;48.770;9.188;2023-07-09T18:11:21;30.40;52.90
796;DHT22;381;48.770;9.188;2023-07-09T18:16:25;30.40;53.20
796;DHT22;381;48.770;9.188;2023-07-09T18:21:29;30.30;53.20
796;DHT22;381;48.770;9.188;2023-07-09T18:26:31;30.20;53.50
796;DHT22;381;48.770;9.188;2023-07-09T18:31:33;30.10;53.80
796;DHT22;381;48.770;9.188;2023-07-09T18:36:37;30.00;53.40
796;DHT22;381;48.770;9.188;2023-07-09T18:41:39;29.90;54.10
796;DHT22;381;48.770;9.188;2023-07-09T18:46:41;29.80;53.20
796;DHT22;381;48.770;9.188;2023-07-09T18:51:44;29.70;53.30
796;DHT22;381;48.770;9.188;2023-07-09T18:56:47;29.50;53.90
796;DHT22;381;48.770;9.188;2023-07-09T19:01:49;29.40;54.10
796;DHT22;381;48.770;9.188;2023-07-09T19:06:53;29.30;54.70
796;DHT22;381;48.770;9.188;2023-07-09T19:11:56;29.20;54.80
796;DHT22;381;48.770;9.188;2023-07-09T19:17:15;29.00;55.10
796;DHT22;381;48.770;9.188;2023-07-09T19:22:19;28.90;55.60
796;DHT22;381;48.770;9.188;2023-07-09T19:27:21;28.80;55.90
796;DHT22;381;48.770;9.188;2023-07-09T19:32:26;28.70;56.30
796;DHT22;381;48.770;9.188;2023-07-09T19:37:29;28.60;56.60
796;DHT22;381;48.770;9.188;2023-07-09T19:42:32;28.50;56.70
796;DHT22;381;48.770;9.188;2023-07-09T19:47:35;28.40;56.90
796;DHT22;381;48.770;9.188;2023-07-09T19:52:39;28.40;57.20
796;DHT22;381;48.770;9.188;2023-07-09T19:57:41;28.30;57.50
796;DHT22;381;48.770;9.188;2023-07-09T20:02:43;28.20;58.00
796;DHT22;381;48.770;9.188;2023-07-09T20:07:47;28.10;58.20
796;DHT22;381;48.770;9.188;2023-07-09T20:12:50;28.10;58.60
796;DHT22;381;48.770;9.188;2023-07-09T20:17:55;28.00;58.90
796;DHT22;381;48.770;9.188;2023-07-09T20:22:58;27.90;59.10
796;DHT22;381;48.770;9.188;2023-07-09T20:28:04;27.90;59.30
796;DHT22;381;48.770;9.188;2023-07-09T20:33:10;27.90;60.00
796;DHT22;381;48.770;9.188;2023-07-09T20:38:15;27.80;59.70
796;DHT22;381;48.770;9.188;2023-07-09T20:43:20;27.70;59.90
796;DHT22;381;48.770;9.188;2023-07-09T20:48:22;27.60;59.50
796;DHT22;381;48.770;9.188;2023-07-09T20:53:26;27.60;59.50
796;DHT22;381;48.770;9.188;2023-07-09T20:58:28;27.50;61.20
796;DHT22;381;48.770;9.188;2023-07-09T21:03:30;27.50;58.90
796;DHT22;381;48.770;9.188;2023-07-09T21:08:34;27.50;59.30
796;DHT22;381;48.770;9.188;2023-07-09T21:13:36;27.50;59.10
796;DHT22;381;48.770;9.188;2023-07-09T21:18:38;27.40;59.50
796;DHT22;381;48.770;9.188;2023-07-09T21:23:42;27.40;60.60
796;DHT22;381;48.770;9.188;2023-07-09T21:28:44;27.30;61.20
796;DHT22;381;48.770;9.188;2023-07-09T21:33:48;27.30;63.40
796;DHT22;381;48.770;9.188;2023-07-09T21:38:51;27.20;63.90
796;DHT22;381;48.770;9.188;2023-07-09T21:43:53;27.10;64.40
796;DHT22;381;48.770;9.188;2023-07-09T21:48:56;27.10;64.00
796;DHT22;381;48.770;9.188;2023-07-09T21:53:59;27.00;63.70
796;DHT22;381;48.770;9.188;2023-07-09T21:59:01;27.00;63.30
796;DHT22;381;48.770;9.188;2023-07-09T22:04:13;26.90;63.60
796;DHT22;381;48.770;9.188;2023-07-09T22:09:16;26.90;63.90
796;DHT22;381;48.770;9.188;2023-07-09T22:14:21;26.90;65.10
796;DHT22;381;48.770;9.188;2023-07-09T22:19:24;26.80;64.20
796;DHT22;381;48.770;9.188;2023-07-09T22:24:27;26.80;67.00
796;DHT22;381;48.770;9.188;2023-07-09T22:29:29;26.70;65.90
796;DHT22;381;48.770;9.188;2023-07-09T22:34:31;26.70;65.50
796;DHT22;381;48.770;9.188;2023-07-09T22:39:35;26.70;65.80
796;DHT22;381;48.770;9.188;2023-07-09T22:44:37;26.60;65.60
796;DHT22;381;48.770;9.188;2023-07-09T22:49:39;26.60;65.70
796;DHT22;381;48.770;9.188;2023-07-09T22:54:42;26.50;66.10
796;DHT22;381;48.770;9.188;2023-07-09T22:59:45;26.50;66.00
796;DHT22;381;48.770;9.188;2023-07-09T23:04:47;26.40;66.10
796;DHT22;381;48.770;9.188;2023-07-09T23:09:51;26.40;66.50
796;DHT22;381;48.770;9.188;2023-07-09T23:14:54;26.30;66.30
796;DHT22;381;48.770;9.188;2023-07-09T23:19:56;26.20;66.00
796;DHT22;381;48.770;9.188;2023-07-09T23:24:59;26.20;66.00
796;DHT22;381;48.770;9.188;2023-07-09T23:30:12;26.20;66.20
796;DHT22;381;48.770;9.188;2023-07-09T23:35:16;26.10;65.80
796;DHT22;381;48.770;9.188;2023-07-09T23:40:21;26.00;65.90
796;DHT22;381;48.770;9.188;2023-07-09T23:45:25;26.00;66.00
796;DHT22;381;48.770;9.188;2023-07-09T23:50:27;26.00;66.40
796;DHT22;381;48.770;9.188;2023-07-09T23:55:31;25.90;66.50
